createdAt,value
2023-02-04T00:00:23.433Z,64.42
2023-02-04T00:02:50.542Z,64.63
2023-02-04T00:05:18.671Z,63.52
2023-02-04T00:07:45.262Z,63.11
2023-02-04T00:10:11.952Z,63.32
2023-02-04T00:12:38.747Z,63.81
2023-02-04T00:15:06.237Z,62.98
2023-02-04T00:17:32.917Z,63.58
2023-02-04T00:19:59.395Z,64.33
2023-02-04T00:22:28.207Z,64.28
2023-02-04T00:24:54.923Z,64.96
2023-02-04T00:27:21.491Z,65.79
2023-02-04T00:29:47.986Z,66.33
2023-02-04T00:32:14.644Z,66.13
2023-02-04T00:34:41.454Z,65.45
2023-02-04T00:37:08.257Z,65.74
2023-02-04T00:39:34.815Z,65.71
2023-02-04T00:42:03.148Z,65.86
2023-02-04T00:44:29.745Z,65.86
2023-02-04T00:46:57.098Z,65.07
2023-02-04T00:49:23.702Z,65.21
2023-02-04T00:51:51.176Z,65.11
2023-02-04T00:54:17.637Z,65.23
2023-02-04T00:56:44.848Z,65.50
2023-02-04T00:59:11.802Z,65.26
2023-02-04T01:01:38.418Z,65.02
2023-02-04T01:04:05.647Z,65.89
2023-02-04T01:06:32.825Z,66.15
2023-02-04T01:08:59.369Z,66.04
2023-02-04T01:11:26.058Z,66.23
2023-02-04T01:13:52.564Z,65.84
2023-02-04T01:16:19.373Z,65.65
2023-02-04T01:18:46.148Z,65.40
2023-02-04T01:21:12.587Z,65.25
2023-02-04T01:23:39.111Z,64.46
2023-02-04T01:26:05.780Z,64.94
2023-02-04T01:28:32.383Z,65.08
2023-02-04T01:30:58.922Z,65.44
2023-02-04T01:33:25.496Z,65.44
2023-02-04T01:35:52.021Z,65.45
2023-02-04T01:38:18.552Z,65.84
2023-02-04T01:40:45.136Z,65.79
2023-02-04T01:43:12.518Z,66.36
2023-02-04T01:45:39.529Z,66.31
2023-02-04T01:48:07.695Z,65.87
2023-02-04T01:50:35.242Z,66.16
2023-02-04T01:53:02.301Z,66.04
2023-02-04T01:55:32.979Z,65.97
2023-02-04T01:57:59.978Z,65.84
2023-02-04T02:00:31.377Z,65.70
2023-02-04T02:02:59.741Z,66.32
2023-02-04T02:05:47.904Z,66.07
2023-02-04T02:08:15.926Z,66.57
2023-02-04T02:10:48.145Z,66.03
2023-02-04T02:13:19.090Z,66.05
2023-02-04T02:15:47.176Z,65.71
2023-02-04T02:18:14.716Z,65.60
2023-02-04T02:20:44.219Z,66.04
2023-02-04T02:23:24.788Z,66.01
2023-02-04T02:25:51.628Z,66.57
2023-02-04T02:28:22.960Z,66.36
2023-02-04T02:30:50.743Z,67.09
2023-02-04T02:33:21.014Z,67.15
2023-02-04T02:35:48.590Z,67.34
2023-02-04T02:38:18.206Z,67.04
2023-02-04T02:40:45.965Z,66.92
2023-02-04T02:43:21.289Z,66.74
2023-02-04T02:45:49.530Z,67.05
2023-02-04T02:48:16.894Z,67.40
2023-02-04T02:50:44.297Z,67.20
2023-02-04T02:53:15.375Z,67.26
2023-02-04T02:55:43.350Z,67.32
2023-02-04T02:58:23.626Z,66.86
2023-02-04T03:00:50.238Z,67.33
2023-02-04T03:03:30.318Z,67.23
2023-02-04T03:06:07.555Z,67.39
2023-02-04T03:08:35.028Z,67.77
2023-02-04T03:11:02.035Z,67.83
2023-02-04T03:13:29.149Z,68.32
2023-02-04T03:15:56.321Z,68.97
2023-02-04T03:18:23.473Z,69.15
2023-02-04T03:20:52.045Z,68.86
2023-02-04T03:23:20.240Z,68.91
2023-02-04T03:25:46.865Z,68.84
2023-02-04T03:28:13.448Z,68.92
2023-02-04T03:30:40.108Z,68.74
2023-02-04T03:33:06.641Z,68.77
2023-02-04T03:35:33.159Z,68.95
2023-02-04T03:37:59.859Z,69.24
2023-02-04T03:40:26.392Z,68.93
2023-02-04T03:42:53.063Z,69.42
2023-02-04T03:45:20.060Z,69.61
2023-02-04T03:47:46.549Z,69.53
2023-02-04T03:50:14.261Z,69.90
2023-02-04T03:52:40.722Z,69.77
2023-02-04T03:55:07.621Z,69.91
2023-02-04T03:57:34.106Z,69.37
2023-02-04T04:00:00.580Z,69.16
2023-02-04T04:02:27.135Z,69.63
2023-02-04T04:04:53.661Z,69.77
2023-02-04T04:07:20.227Z,69.41
2023-02-04T04:09:46.701Z,69.16
2023-02-04T04:12:13.144Z,69.16
2023-02-04T04:14:39.648Z,69.16
2023-02-04T04:17:06.922Z,69.40
2023-02-04T04:19:33.401Z,69.03
2023-02-04T04:21:59.932Z,69.18
2023-02-04T04:24:26.665Z,69.24
2023-02-04T04:26:53.162Z,69.82
2023-02-04T04:29:19.647Z,70.04
2023-02-04T04:31:46.182Z,70.19
2023-02-04T04:34:12.690Z,70.37
2023-02-04T04:36:39.167Z,70.59
2023-02-04T04:39:05.650Z,70.16
2023-02-04T04:41:32.132Z,70.90
2023-02-04T04:43:58.648Z,70.86
2023-02-04T04:46:25.108Z,70.69
2023-02-04T04:48:51.704Z,71.09
2023-02-04T04:51:18.275Z,71.24
2023-02-04T04:53:44.804Z,71.10
2023-02-04T04:56:11.299Z,71.44
2023-02-04T04:58:37.817Z,71.48
2023-02-04T05:01:04.417Z,71.38
2023-02-04T05:03:30.951Z,70.82
2023-02-04T05:05:57.886Z,70.54
2023-02-04T05:08:24.445Z,70.13
2023-02-04T05:10:50.889Z,70.38
2023-02-04T05:13:18.568Z,70.01
2023-02-04T05:15:45.100Z,70.33
2023-02-04T05:18:11.548Z,70.18
2023-02-04T05:20:38.021Z,70.87
2023-02-04T05:23:05.690Z,71.46
2023-02-04T05:25:32.780Z,71.63
2023-02-04T05:27:59.336Z,71.62
2023-02-04T05:30:26.098Z,71.39
2023-02-04T05:32:52.641Z,71.37
2023-02-04T05:35:19.417Z,71.30
2023-02-04T05:37:45.937Z,71.39
2023-02-04T05:40:13.585Z,70.79
2023-02-04T05:42:41.697Z,70.75
2023-02-04T05:45:16.048Z,70.49
2023-02-04T05:47:42.921Z,70.45
2023-02-04T05:50:10.178Z,70.32
2023-02-04T05:52:36.852Z,69.75
2023-02-04T05:55:03.614Z,69.57
2023-02-04T05:57:30.168Z,70.14
2023-02-04T05:59:56.713Z,70.38
2023-02-04T06:02:23.398Z,69.97
2023-02-04T06:04:49.849Z,69.77
2023-02-04T06:07:16.372Z,70.03
2023-02-04T06:09:42.880Z,70.03
2023-02-04T06:12:10.534Z,69.69
2023-02-04T06:14:37.048Z,69.54
2023-02-04T06:17:03.766Z,70.26
2023-02-04T06:19:30.276Z,70.68
2023-02-04T06:21:56.749Z,71.03
2023-02-04T06:24:23.278Z,70.77
2023-02-04T06:26:49.771Z,70.33
2023-02-04T06:29:16.246Z,70.28
2023-02-04T06:31:44.516Z,70.24
2023-02-04T06:34:11.181Z,69.80
2023-02-04T06:36:37.663Z,70.38
2023-02-04T06:39:04.173Z,70.76
2023-02-04T06:41:30.671Z,70.55
2023-02-04T06:43:57.210Z,70.96
2023-02-04T06:46:23.894Z,70.81
2023-02-04T06:48:50.394Z,70.79
2023-02-04T06:51:16.866Z,70.92
2023-02-04T06:53:45.669Z,70.77
2023-02-04T06:56:12.459Z,70.93
2023-02-04T06:58:39.247Z,70.68
2023-02-04T07:01:06.342Z,70.89
2023-02-04T07:03:33.800Z,71.60
2023-02-04T07:06:00.254Z,71.43
2023-02-04T07:08:26.763Z,70.75
2023-02-04T07:10:53.357Z,70.44
2023-02-04T07:13:20.109Z,70.54
2023-02-04T07:15:46.682Z,70.29
2023-02-04T07:18:13.345Z,70.48
2023-02-04T07:20:39.867Z,70.24
2023-02-04T07:23:06.343Z,70.33
2023-02-04T07:25:32.861Z,70.17
2023-02-04T07:28:01.620Z,69.91
2023-02-04T07:30:28.203Z,69.99
2023-02-04T07:32:54.831Z,70.38
2023-02-04T07:35:21.310Z,70.78
2023-02-04T07:37:47.856Z,70.83
2023-02-04T07:40:14.474Z,70.28
2023-02-04T07:42:41.068Z,69.91
2023-02-04T07:45:08.700Z,69.87
2023-02-04T07:47:35.187Z,70.22
2023-02-04T07:50:01.750Z,69.72
2023-02-04T07:52:28.312Z,69.50
2023-02-04T07:54:54.829Z,69.79
2023-02-04T07:57:21.541Z,69.36
2023-02-04T07:59:48.024Z,69.72
2023-02-04T08:02:14.615Z,70.54
2023-02-04T08:04:41.255Z,71.01
2023-02-04T08:07:07.749Z,70.53
2023-02-04T08:09:34.253Z,70.54
2023-02-04T08:12:00.735Z,70.66
2023-02-04T08:14:27.204Z,70.61
2023-02-04T08:16:53.697Z,70.23
2023-02-04T08:19:21.435Z,70.41
2023-02-04T08:21:48.462Z,70.29
2023-02-04T08:24:17.010Z,70.40
2023-02-04T08:26:44.476Z,70.58
2023-02-04T08:29:11.110Z,70.62
2023-02-04T08:31:38.702Z,70.13
2023-02-04T08:34:06.107Z,70.45
2023-02-04T08:36:33.276Z,70.46
2023-02-04T08:38:59.794Z,69.96
2023-02-04T08:41:26.251Z,70.05
2023-02-04T08:43:52.810Z,69.59
2023-02-04T08:46:19.405Z,70.22
2023-02-04T08:48:46.021Z,70.24
2023-02-04T08:51:12.573Z,70.38
2023-02-04T08:53:40.676Z,69.81
2023-02-04T08:56:08.898Z,69.50
2023-02-04T08:58:35.505Z,69.27
2023-02-04T09:01:02.753Z,69.41
2023-02-04T09:03:29.345Z,69.07
2023-02-04T09:05:55.908Z,68.96
2023-02-04T09:08:22.386Z,69.04
2023-02-04T09:10:48.874Z,68.65
2023-02-04T09:13:15.468Z,68.69
2023-02-04T09:15:42.001Z,68.11
2023-02-04T09:18:19.954Z,68.26
2023-02-04T09:20:46.571Z,67.96
2023-02-04T09:23:13.556Z,67.48
2023-02-04T09:25:41.108Z,67.49
2023-02-04T09:28:11.872Z,67.40
2023-02-04T09:30:40.268Z,67.15
2023-02-04T09:33:08.233Z,67.44
2023-02-04T09:35:34.774Z,67.06
2023-02-04T09:38:02.140Z,67.15
2023-02-04T09:40:34.744Z,67.18
2023-02-04T09:43:04.049Z,66.65
2023-02-04T09:45:35.720Z,66.11
2023-02-04T09:48:07.497Z,66.46
2023-02-04T09:50:35.108Z,66.81
2023-02-04T09:53:05.693Z,66.14
2023-02-04T09:55:38.325Z,65.86
2023-02-04T09:58:20.704Z,66.11
2023-02-04T10:01:00.019Z,66.06
2023-02-04T10:03:26.953Z,65.99
2023-02-04T10:05:53.686Z,65.83
2023-02-04T10:08:29.118Z,65.86
2023-02-04T10:10:58.024Z,65.91
2023-02-04T10:13:34.618Z,65.44
2023-02-04T10:16:03.760Z,66.02
2023-02-04T10:18:33.835Z,65.83
2023-02-04T10:21:36.820Z,65.70
2023-02-04T10:24:12.684Z,65.93
2023-02-04T10:26:39.190Z,65.43
2023-02-04T10:29:14.170Z,65.07
2023-02-04T10:31:44.649Z,64.94
2023-02-04T10:34:18.073Z,64.84
2023-02-04T10:36:49.218Z,64.56
2023-02-04T10:39:24.886Z,64.58
2023-02-04T10:41:57.232Z,64.76
2023-02-04T10:44:32.927Z,64.18
2023-02-04T10:47:05.790Z,64.62
2023-02-04T10:49:33.389Z,63.85
2023-02-04T10:52:02.451Z,63.27
2023-02-04T10:54:38.157Z,62.56
2023-02-04T10:57:21.671Z,62.20
2023-02-04T10:59:53.633Z,62.19
2023-02-04T11:02:44.850Z,62.28
2023-02-04T11:05:25.912Z,62.40
2023-02-04T11:07:52.466Z,61.64
2023-02-04T11:10:28.138Z,61.60
2023-02-04T11:12:54.528Z,61.69
2023-02-04T11:15:44.502Z,60.58
2023-02-04T11:18:20.331Z,61.42
2023-02-04T11:20:50.112Z,61.55
2023-02-04T11:23:29.937Z,61.13
2023-02-04T11:26:13.378Z,60.70
2023-02-04T11:28:49.783Z,59.61
2023-02-04T11:31:22.308Z,60.01
2023-02-04T11:34:02.222Z,60.06
2023-02-04T11:36:30.469Z,59.50
2023-02-04T11:38:57.021Z,59.32
2023-02-04T11:41:33.256Z,59.04
2023-02-04T11:44:00.000Z,59.56
2023-02-04T11:46:29.099Z,59.24
2023-02-04T11:48:58.620Z,59.05
2023-02-04T11:51:35.127Z,57.27
2023-02-04T11:54:01.635Z,58.12
2023-02-04T11:56:30.221Z,57.56
2023-02-04T11:58:58.626Z,57.94
2023-02-04T12:01:32.492Z,57.87
2023-02-04T12:04:03.526Z,57.82
2023-02-04T12:06:36.809Z,57.45
2023-02-04T12:09:16.119Z,57.30
2023-02-04T12:11:58.418Z,56.12
2023-02-04T12:14:38.658Z,56.07
2023-02-04T12:17:20.308Z,57.02
2023-02-04T12:19:46.821Z,57.25
2023-02-04T12:22:14.681Z,57.31
2023-02-04T12:24:41.680Z,57.60
2023-02-04T12:27:08.153Z,58.22
2023-02-04T12:29:34.710Z,57.69
2023-02-04T12:32:01.406Z,57.32
2023-02-04T12:34:28.870Z,57.40
2023-02-04T12:36:55.347Z,57.91
2023-02-04T12:39:21.862Z,58.12
2023-02-04T12:41:48.350Z,57.93
2023-02-04T12:44:15.783Z,58.24
2023-02-04T12:46:42.384Z,58.02
2023-02-04T12:49:09.702Z,57.65
2023-02-04T12:51:36.288Z,57.05
2023-02-04T12:54:02.854Z,57.20
2023-02-04T12:56:29.415Z,56.81
2023-02-04T12:58:55.911Z,55.61
2023-02-04T13:01:22.397Z,55.53
2023-02-04T13:03:48.920Z,55.54
2023-02-04T13:06:15.350Z,55.37
2023-02-04T13:08:41.885Z,55.22
2023-02-04T13:11:08.456Z,54.58
2023-02-04T13:13:34.988Z,55.01
2023-02-04T13:16:01.490Z,54.43
2023-02-04T13:18:28.558Z,54.78
2023-02-04T13:20:55.023Z,54.56
2023-02-04T13:23:21.480Z,55.19
2023-02-04T13:25:48.000Z,54.89
2023-02-04T13:28:14.608Z,53.44
2023-02-04T13:30:41.252Z,52.97
2023-02-04T13:33:07.758Z,53.30
2023-02-04T13:35:34.552Z,53.77
2023-02-04T13:38:01.168Z,53.30
2023-02-04T13:40:27.766Z,52.93
2023-02-04T13:42:54.340Z,53.26
2023-02-04T13:45:20.853Z,53.66
2023-02-04T13:47:48.741Z,54.44
2023-02-04T13:50:16.683Z,54.51
2023-02-04T13:52:43.449Z,54.76
2023-02-04T13:55:10.063Z,55.34
2023-02-04T13:57:37.808Z,55.86
2023-02-04T14:00:06.906Z,56.06
2023-02-04T14:02:33.802Z,56.07
2023-02-04T14:05:00.463Z,55.85
2023-02-04T14:07:27.442Z,55.71
2023-02-04T14:09:53.940Z,54.96
2023-02-04T14:12:20.416Z,54.16
2023-02-04T14:14:46.954Z,53.87
2023-02-04T14:17:13.485Z,53.75
2023-02-04T14:19:40.023Z,52.78
2023-02-04T14:22:07.664Z,52.88
2023-02-04T14:24:34.237Z,52.98
2023-02-04T14:27:03.867Z,52.86
2023-02-04T14:29:30.359Z,52.29
2023-02-04T14:31:56.887Z,51.50
2023-02-04T14:34:23.408Z,51.85
2023-02-04T14:36:50.076Z,52.30
2023-02-04T14:39:16.579Z,51.88
2023-02-04T14:41:43.008Z,52.00
2023-02-04T14:44:09.534Z,52.18
2023-02-04T14:46:36.234Z,51.95
2023-02-04T14:49:02.875Z,51.96
2023-02-04T14:51:29.330Z,51.74
2023-02-04T14:53:55.839Z,51.82
2023-02-04T14:56:22.334Z,51.80
2023-02-04T14:58:48.838Z,51.88
2023-02-04T15:01:15.334Z,52.08
2023-02-04T15:03:41.846Z,52.50
2023-02-04T15:06:08.286Z,52.63
2023-02-04T15:08:35.473Z,52.76
2023-02-04T15:11:02.004Z,53.22
2023-02-04T15:13:29.262Z,53.70
2023-02-04T15:15:55.802Z,53.86
2023-02-04T15:18:22.504Z,54.25
2023-02-04T15:20:48.998Z,54.16
2023-02-04T15:23:15.500Z,54.16
2023-02-04T15:25:42.086Z,54.40
2023-02-04T15:28:10.911Z,54.44
2023-02-04T15:30:38.697Z,54.48
2023-02-04T15:33:05.240Z,54.75
2023-02-04T15:35:31.725Z,54.83
2023-02-04T15:37:58.225Z,54.97
2023-02-04T15:40:24.737Z,55.46
2023-02-04T15:42:52.922Z,55.13
2023-02-04T15:45:19.416Z,55.17
2023-02-04T15:47:45.927Z,54.92
2023-02-04T15:50:14.869Z,54.84
2023-02-04T15:52:41.347Z,55.57
2023-02-04T15:55:08.199Z,55.91
2023-02-04T15:57:34.792Z,56.18
2023-02-04T16:00:01.290Z,57.04
2023-02-04T16:02:27.906Z,56.66
2023-02-04T16:04:54.425Z,57.25
2023-02-04T16:07:22.327Z,57.77
2023-02-04T16:09:48.796Z,57.95
2023-02-04T16:12:15.374Z,57.71
2023-02-04T16:14:41.960Z,58.18
2023-02-04T16:17:09.557Z,58.58
2023-02-04T16:19:36.035Z,58.96
2023-02-04T16:22:02.505Z,59.30
2023-02-04T16:24:28.962Z,59.46
2023-02-04T16:26:55.408Z,59.40
2023-02-04T16:29:21.894Z,60.32
2023-02-04T16:31:48.664Z,60.52
2023-02-04T16:34:15.182Z,60.14
2023-02-04T16:36:41.668Z,60.50
2023-02-04T16:39:08.172Z,61.05
2023-02-04T16:41:34.684Z,61.42
2023-02-04T16:44:01.120Z,61.21
2023-02-04T16:46:30.416Z,61.63
2023-02-04T16:48:57.036Z,61.53
2023-02-04T16:51:24.799Z,61.52
2023-02-04T16:53:51.349Z,61.35
2023-02-04T16:56:17.950Z,61.52
2023-02-04T16:58:44.859Z,61.89
2023-02-04T17:01:11.560Z,62.08
2023-02-04T17:03:38.052Z,62.12
2023-02-04T17:06:04.682Z,62.61
2023-02-04T17:08:31.166Z,62.56
2023-02-04T17:11:16.286Z,63.43
2023-02-04T17:13:42.770Z,63.57
2023-02-04T17:16:09.368Z,64.22
2023-02-04T17:18:35.984Z,64.12
2023-02-04T17:21:02.819Z,64.11
2023-02-04T17:23:29.393Z,64.09
2023-02-04T17:25:56.017Z,64.79
2023-02-04T17:28:24.092Z,64.89
2023-02-04T17:30:50.662Z,64.94
2023-02-04T17:33:17.226Z,65.22
2023-02-04T17:35:44.951Z,64.99
2023-02-04T17:38:11.506Z,64.62
2023-02-04T17:40:38.052Z,64.63
2023-02-04T17:43:04.870Z,64.25
2023-02-04T17:45:31.680Z,64.29
2023-02-04T17:47:58.379Z,64.87
2023-02-04T17:50:25.184Z,65.36
2023-02-04T17:52:52.450Z,65.51
2023-02-04T17:55:28.940Z,65.99
2023-02-04T17:57:59.751Z,66.69
2023-02-04T18:00:30.766Z,66.95
2023-02-04T18:02:57.579Z,66.95
2023-02-04T18:05:30.703Z,66.13
2023-02-04T18:08:13.624Z,66.46
2023-02-04T18:10:49.217Z,66.38
2023-02-04T18:13:34.126Z,67.23
2023-02-04T18:16:24.212Z,68.10
2023-02-04T18:18:55.437Z,67.60
2023-02-04T18:21:27.605Z,68.16
2023-02-04T18:24:17.313Z,67.72
2023-02-04T18:26:52.912Z,67.28
2023-02-04T18:29:38.288Z,67.21
2023-02-04T18:32:23.401Z,67.31
2023-02-04T18:34:55.678Z,67.37
2023-02-04T18:37:36.054Z,67.62
2023-02-04T18:40:08.512Z,67.41
2023-02-04T18:42:40.094Z,66.87
2023-02-04T18:45:28.770Z,66.69
2023-02-04T18:47:57.822Z,67.08
2023-02-04T18:50:32.579Z,67.49
2023-02-04T18:53:11.040Z,68.56
2023-02-04T18:55:41.307Z,68.76
2023-02-04T18:58:17.226Z,68.06
2023-02-04T19:00:51.825Z,67.77
2023-02-04T19:03:31.677Z,67.35
2023-02-04T19:06:02.315Z,67.70
2023-02-04T19:08:42.648Z,67.89
2023-02-04T19:11:36.062Z,68.02
2023-02-04T19:14:38.772Z,68.21
2023-02-04T19:17:14.526Z,68.11
2023-02-04T19:19:54.243Z,68.00
2023-02-04T19:22:40.365Z,67.66
2023-02-04T19:25:27.957Z,68.09
2023-02-04T19:28:00.084Z,67.60
2023-02-04T19:30:26.524Z,67.18
2023-02-04T19:32:57.680Z,67.89
2023-02-04T19:35:27.806Z,67.78
2023-02-04T19:38:02.932Z,67.30
2023-02-04T19:40:37.127Z,67.62
2023-02-04T19:43:37.208Z,68.29
2023-02-04T19:46:34.436Z,68.13
2023-02-04T19:49:20.731Z,67.74
2023-02-04T19:51:57.931Z,67.30
2023-02-04T19:54:41.504Z,66.63
2023-02-04T19:57:32.325Z,67.06
2023-02-04T19:59:59.904Z,66.93
2023-02-04T20:02:38.234Z,67.24
2023-02-04T20:05:19.625Z,68.36
2023-02-04T20:07:46.305Z,68.22
2023-02-04T20:10:27.601Z,68.55
2023-02-04T20:13:19.529Z,68.90
2023-02-04T20:15:46.240Z,68.69
2023-02-04T20:18:19.947Z,68.45
2023-02-04T20:20:47.004Z,68.06
2023-02-04T20:23:32.590Z,68.05
2023-02-04T20:26:01.287Z,68.32
2023-02-04T20:31:22.595Z,68.00
2023-02-04T20:33:53.966Z,68.76
2023-02-04T20:36:26.766Z,68.38
2023-02-04T20:39:23.628Z,67.91
2023-02-04T20:41:50.136Z,69.14
2023-02-04T20:44:27.574Z,68.68
2023-02-04T20:47:15.812Z,68.69
2023-02-04T20:49:44.347Z,68.54
2023-02-04T20:52:39.703Z,69.43
2023-02-04T20:55:30.987Z,70.30
2023-02-04T20:58:20.712Z,70.10
2023-02-04T21:00:52.155Z,70.00
2023-02-04T21:03:29.597Z,69.43
2023-02-04T21:05:59.593Z,69.46
2023-02-04T21:08:57.583Z,69.35
2023-02-04T21:11:25.714Z,69.86
2023-02-04T21:13:54.696Z,70.26
2023-02-04T21:16:22.093Z,70.51
2023-02-04T21:18:48.637Z,70.36
2023-02-04T21:21:15.311Z,69.82
2023-02-04T21:23:42.063Z,69.29
2023-02-04T21:26:08.759Z,69.56
2023-02-04T21:28:35.470Z,69.97
2023-02-04T21:31:02.297Z,70.49
2023-02-04T21:33:29.058Z,70.71
2023-02-04T21:35:55.687Z,70.57
2023-02-04T21:38:22.185Z,70.98
2023-02-04T21:40:48.772Z,71.18
2023-02-04T21:43:15.355Z,71.35
2023-02-04T21:45:41.869Z,70.94
2023-02-04T21:48:08.470Z,70.68
2023-02-04T21:50:38.186Z,70.98
2023-02-04T21:53:07.450Z,70.93
2023-02-04T21:55:35.424Z,70.98
2023-02-04T21:58:02.594Z,70.41
2023-02-04T22:00:29.164Z,69.92
2023-02-04T22:02:55.902Z,69.70
2023-02-04T22:05:23.721Z,70.06
2023-02-04T22:07:51.409Z,70.17
2023-02-04T22:10:22.621Z,69.50
2023-02-04T22:12:49.605Z,70.51
2023-02-04T22:15:16.905Z,70.06
2023-02-04T22:17:44.858Z,70.10
2023-02-04T22:20:15.543Z,69.48
2023-02-04T22:22:46.619Z,69.44
2023-02-04T22:25:17.294Z,69.61
2023-02-04T22:27:44.564Z,70.00
2023-02-04T22:30:13.785Z,70.13
2023-02-04T22:32:40.653Z,70.62
2023-02-04T22:35:12.113Z,70.40
2023-02-04T22:37:40.834Z,69.85
2023-02-04T22:40:11.628Z,69.46
2023-02-04T22:42:38.144Z,69.60
2023-02-04T22:45:05.435Z,69.56
2023-02-04T22:47:32.004Z,69.96
2023-02-04T22:49:58.515Z,69.88
2023-02-04T22:52:25.134Z,69.92
2023-02-04T22:54:52.474Z,69.75
2023-02-04T22:57:19.008Z,69.29
2023-02-04T22:59:45.579Z,69.11
2023-02-04T23:02:12.104Z,68.65
2023-02-04T23:04:38.738Z,69.49
2023-02-04T23:07:05.800Z,69.33
2023-02-04T23:09:33.054Z,69.28
2023-02-04T23:12:12.498Z,70.08
2023-02-04T23:14:46.888Z,69.61
2023-02-04T23:17:15.716Z,69.34
2023-02-04T23:19:43.104Z,68.97
2023-02-04T23:22:11.687Z,68.69
2023-02-04T23:24:39.574Z,68.54
2023-02-04T23:27:06.796Z,68.37
2023-02-04T23:29:35.202Z,68.07
2023-02-04T23:32:03.160Z,68.75
2023-02-04T23:34:30.700Z,69.35
2023-02-04T23:36:57.418Z,70.02
2023-02-04T23:39:24.012Z,70.48
2023-02-04T23:41:50.933Z,70.36
2023-02-04T23:44:17.630Z,70.14
2023-02-04T23:46:44.384Z,71.36
2023-02-04T23:49:11.493Z,70.94
2023-02-04T23:51:38.039Z,71.02
2023-02-04T23:54:05.149Z,70.66
2023-02-04T23:56:31.714Z,70.15
2023-02-04T23:58:58.209Z,69.85
